• Join FlightAware (Why Join?)
  • Login
  • US Flag 
06:49PM EDT


 

Airport Tracker/Info


-or-


 

Live Flight TrackerFlight Track Log ✈ SWA975 ✈ 24-Aug-2013 ✈ KSFO - KDEN

Flight Track Log - Related Links

Times and Time Zones

All times are in EDT time to prevent confusion due to time zone crossing. See the SWA975 flight status page for this flight to view local times or setup timezone preferences in your user account.

Time Position Orientation Groundspeed Altitude Reporting Facility
EDT Latitude Longitude Course Direction KTS MPH feet Rate Location/Type
07:15PM 37.6500 -122.3333 58° Northeast 190 219 2,300  Level Northern Cal TRACON
07:16PM 37.6833 -122.2667 58° Northeast 237 273 5,600 3,480 Climbing Northern Cal TRACON
07:17PM 37.7500 -122.1833 45° Northeast 293 337 9,300 3,060 Climbing Northern Cal TRACON
07:19PM 37.7967 -122.0167 70° East 340 391 14,200 3,060 Climbing Oakland Center
07:20PM 37.8392 -121.8639 71° East 381 438 17,900 3,300 Climbing Oakland Center
07:21PM 37.8742 -121.7278 72° East 402 463 21,000 2,700 Climbing Oakland Center
07:22PM 37.9039 -121.5858 75° East 415 478 23,500 2,340 Climbing Oakland Center
07:23PM 37.9389 -121.4344 74° East 439 505 25,800 2,280 Climbing Oakland Center
07:24PM 37.9725 -121.2800 75° East 453 521 28,200 2,160 Climbing Oakland Center
07:25PM 38.0064 -121.1242 75° East 460 529 30,300 1,800 Climbing Oakland Center
07:26PM 38.0403 -120.9647 75° East 466 536 31,900 1,680 Climbing Oakland Center
07:27PM 38.0758 -120.8025 74° East 475 547 33,800 1,740 Climbing Oakland Center
07:28PM 38.1111 -120.6414 74° East 478 550 35,500 1,740 Climbing Oakland Center
07:29PM 38.1847 -120.4631 62° Northeast 478 550 37,400 1,560 Climbing Oakland Center
07:30PM 38.2500 -120.3164 60° Northeast 480 552 38,700 780 Climbing Oakland Center
07:31PM 38.2858 -120.1550 74° East 480 552 39,000 120 Climbing Oakland Center
07:32PM 38.3211 -119.9936 74° East 475 547 39,000  Level Oakland Center
07:33PM 38.3522 -119.8306 76° East 476 548 39,000  Level Oakland Center
07:34PM 38.3839 -119.6672 76° East 478 550 39,000  Level Oakland Center
07:35PM 38.4217 -119.4864 75° East 477 549 39,000  Level Oakland Center
07:36PM 38.4525 -119.3192 77° East 484 557 39,000  Level Oakland Center
07:37PM 38.4850 -119.1547 76° East 482 555 39,000  Level Oakland Center
07:38PM 38.5164 -118.9886 76° East 484 557 39,000  Level Oakland Center
07:39PM 38.5483 -118.8233 76° East 484 557 39,000  Level Oakland Center
07:40PM 38.5803 -118.6567 76° East 484 557 39,000  Level Oakland Center
07:41PM 38.6117 -118.4908 76° East 484 557 39,000  Level Oakland Center
07:42PM 38.6422 -118.3269 77° East 478 550 39,000  Level Oakland Center
07:43PM 38.6731 -118.1608 77° East 483 556 39,000  Level Oakland Center
07:44PM 38.7097 -117.9625 77° East 481 554 39,000  Level Oakland Center
07:45PM 38.7397 -117.7981 77° East 478 550 39,000  Level Oakland Center
07:46PM 38.7697 -117.6278 77° East 480 552 39,000  Level Oakland Center
07:47PM 38.7992 -117.4608 77° East 479 551 39,000  Level Oakland Center
07:48PM 38.8289 -117.2917 77° East 483 556 39,000  Level Oakland Center
07:49PM 38.8578 -117.1236 78° East 481 554 39,000  Level Oakland Center
07:50PM 38.8869 -116.9539 77° East 483 556 39,000  Level Oakland Center
07:51PM 38.9022 -116.8636 78° East 483 556 39,000  Level Salt Lake Center
07:52PM 38.9325 -116.6831 78° East 485 558 39,000  Level Salt Lake Center
07:53PM 38.9608 -116.5128 78° East 486 559 39,000  Level Salt Lake Center
07:54PM 38.9897 -116.3422 78° East 487 560 39,000  Level Salt Lake Center
07:55PM 39.0181 -116.1706 78° East 490 564 39,000  Level Salt Lake Center
07:56PM 39.0456 -116.0017 78° East 484 557 39,000  Level Salt Lake Center
07:57PM 39.0736 -115.8314 78° East 485 558 39,000  Level Salt Lake Center
07:58PM 39.1000 -115.6622 79° East 483 556 39,000  Level Salt Lake Center
07:59PM 39.1272 -115.4953 78° East 477 549 39,000  Level Salt Lake Center
08:00PM 39.1592 -115.2967 78° East 487 560 39,000  Level Salt Lake Center
08:01PM 39.1847 -115.1344 78° East 486 559 39,000  Level Salt Lake Center
08:02PM 39.2083 -114.9753 79° East 478 550 39,000  Level Salt Lake Center
08:03PM 39.2361 -114.7864 79° East 479 551 39,000  Level Salt Lake Center
08:04PM 39.2625 -114.6231 78° East 484 557 39,000  Level Salt Lake Center
08:05PM 39.2903 -114.4353 79° East 480 552 39,000  Level Salt Lake Center
08:06PM 39.3181 -114.2647 78° East 491 565 39,000  Level Salt Lake Center
08:07PM 39.3425 -114.0961 79° East 483 556 39,000 360 Level Salt Lake Center
08:08PM 39.3669 -113.9283 79° East 477 549 39,800 540 Climbing Salt Lake Center
08:09PM 39.3908 -113.7558 80° East 484 557 40,200 480 Climbing Salt Lake Center
08:10PM 39.4167 -113.5767 79° East 501 577 40,800 360 Climbing Salt Lake Center
08:11PM 39.4417 -113.3972 80° East 507 583 41,000 60 Climbing Salt Lake Center
08:12PM 39.4667 -113.2194 80° East 504 580 41,000  Level Salt Lake Center
08:13PM 39.4958 -113.0064 80° East 501 577 41,000  Level Salt Lake Center
08:14PM 39.5208 -112.8281 80° East 502 578 41,000  Level Salt Lake Center
08:15PM 39.5458 -112.6422 80° East 503 579 41,000  Level Salt Lake Center
08:17PM 39.5689 -112.4614 81° East 508 585 41,000  Level Salt Lake Center
08:18PM 39.5908 -112.2825 81° East 506 582 41,000  Level Salt Lake Center
08:19PM 39.6142 -112.1047 80° East 504 580 41,000  Level Salt Lake Center
08:20PM 39.6356 -111.9269 81° East 503 579 41,000  Level Salt Lake Center
08:21PM 39.6578 -111.7497 81° East 503 579 41,000  Level Salt Lake Center
08:22PM 39.6808 -111.5719 80° East 503 579 41,000  Level Salt Lake Center
08:23PM 39.7019 -111.3947 81° East 501 577 41,000  Level Salt Lake Center
08:24PM 39.7244 -111.2072 81° East 499 574 41,000  Level Salt Lake Center
08:25PM 39.7497 -111.0075 81° East 500 575 41,000  Level Salt Lake Center
08:26PM 39.7692 -110.8378 81° East 498 573 41,000  Level Salt Lake Center
08:27PM 39.7917 -110.6425 81° East 492 566 41,000  Level Salt Lake Center
08:28PM 39.8106 -110.4739 82° East 492 566 41,000  Level Salt Lake Center
08:29PM 39.8294 -110.3033 82° East 496 571 41,000  Level Salt Lake Center
08:30PM 39.8503 -110.1044 82° East 496 571 41,000  Level Salt Lake Center
08:31PM 39.8689 -109.9358 82° East 491 565 41,000  Level Salt Lake Center
08:31PM 39.8806 -109.8247 82° East 486 559 41,000  Level Denver Center
08:33PM 39.9011 -109.6314 82° East 482 555 41,000  Level Denver Center
08:34PM 39.9175 -109.4675 83° East 478 550 41,000  Level Denver Center
08:35PM 39.9347 -109.3031 82° East 478 550 41,000  Level Denver Center
08:36PM 39.9544 -109.1128 82° East 472 543 41,000  Level Denver Center
08:37PM 39.9714 -108.9461 82° East 478 550 41,000 -60 Level Denver Center
08:38PM 39.9897 -108.7528 83° East 478 550 40,900 -540 Descending Denver Center
08:39PM 40.0061 -108.5878 83° East 476 548 40,000 -900 Descending Denver Center
08:40PM 40.0228 -108.4178 83° East 487 560 39,100 -540 Descending Denver Center
08:41PM 40.0406 -108.2211 83° East 488 562 39,000 -60 Descending Denver Center
08:42PM 40.0561 -108.0528 83° East 487 560 39,000  Level Denver Center
08:43PM 40.0739 -107.8864 82° East 483 556 39,000 -300 Level Denver Center
08:44PM 40.1153 -107.6953 74° East 489 563 38,500 -780 Descending Denver Center
08:45PM 40.1472 -107.5311 76° East 487 560 37,500 -960 Descending Denver Center
08:46PM 40.1800 -107.3681 75° East 485 558 36,600 -1,020 Descending Denver Center
08:47PM 40.2183 -107.1764 75° East 487 560 35,500 -840 Descending Denver Center
08:48PM 40.2492 -107.0119 76° East 488 562 35,000 -300 Descending Denver Center
08:49PM 40.2589 -106.8461 86° East 476 548 35,000  Level Denver Center
08:50PM 40.2728 -106.6786 84° East 473 544 35,000  Level Denver Center
08:51PM 40.2867 -106.4925 84° East 470 541 35,000 -360 Level Denver Center
08:52PM 40.2997 -106.3022 85° East 468 539 34,300 -1,980 Descending Denver Center
08:53PM 40.3125 -106.1236 85° East 470 541 31,000 -2,940 Descending Denver Center
08:54PM 40.3236 -105.9533 85° East 468 539 28,400 -2,460 Descending Denver Center
08:55PM 40.3336 -105.7892 85° East 455 524 26,000 -2,400 Descending Denver Center
08:56PM 40.3442 -105.6297 85° East 444 511 23,600 -1,980 Descending Denver Center
08:57PM 40.3542 -105.4786 85° East 422 486 22,000 -1,620 Descending Denver Center
08:58PM 40.3056 -105.3572 118° Southeast 374 430 20,400 -1,680 Descending Denver Center
08:59PM 40.2589 -105.2469 119° Southeast 351 404 18,700 -1,620 Descending Denver Center
09:00PM 40.2194 -105.1228 113° Southeast 344 396 17,200 -1,620 Descending Denver Center
09:01PM 40.1608 -105.0339 131° Southeast 322 371 15,400 -1,740 Descending Denver Center
09:02PM 40.1036 -104.9447 130° Southeast 320 368 13,700 -1,260 Descending Denver Center
09:03PM 40.0494 -104.8608 130° Southeast 301 346 12,900 -1,140 Descending Denver Center
09:04PM 39.9897 -104.7706 131° Southeast 304 350 11,400 -960 Descending Denver Center
09:05PM 39.9689 -104.6767 106° East 275 316 11,000 -240 Descending Denver Center
09:06PM 39.9731 -104.5853 87° East 255 293 11,000 -180 Level Denver Center
09:07PM 39.9681 -104.5028 94° East 235 270 10,700 -900 Descending Denver Center
09:08PM 39.9144 -104.4797 162° South 186 214 9,200 -1,800 Descending Denver Center
09:09PM 39.8742 -104.5067 207° Southwest 182 209 7,100 -1,620 Descending Denver Center
09:10PM 39.8767 -104.5664 273° West 165 190 6,000 -960 Descending Denver Center
09:11PM 39.8772 -104.6214 271° West 142 163 5,200 -360 Descending Denver Center
09:12PM 39.8775 -104.6486 271° West 106 122 5,300 60 Climbing Denver Center
09:14PM 39.8617 -104.6732 195° South  Level Estimated
09:21PM 39.8617 -104.6732 North  Level Estimated
09:22PM 39.8617 -104.6732 North  Level Estimated